sensor_id;sensor_type;location;lat;lon;timestamp;temperature;humidity
64961;SHT31;51487;52.266;10.542;2024-03-02T00:00:50;9.17;87.39
64961;SHT31;51487;52.266;10.542;2024-03-02T00:03:17;9.07;87.51
64961;SHT31;51487;52.266;10.542;2024-03-02T00:05:43;9.04;87.54
64961;SHT31;51487;52.266;10.542;2024-03-02T00:08:09;9.07;87.44
64961;SHT31;51487;52.266;10.542;2024-03-02T00:10:39;9.04;87.70
64961;SHT31;51487;52.266;10.542;2024-03-02T00:13:06;9.11;87.64
64961;SHT31;51487;52.266;10.542;2024-03-02T00:15:53;9.11;87.60
64961;SHT31;51487;52.266;10.542;2024-03-02T00:18:25;9.11;87.65
64961;SHT31;51487;52.266;10.542;2024-03-02T00:20:56;9.17;87.83
64961;SHT31;51487;52.266;10.542;2024-03-02T00:23:23;9.11;87.74
64961;SHT31;51487;52.266;10.542;2024-03-02T00:25:52;9.07;87.86
64961;SHT31;51487;52.266;10.542;2024-03-02T00:28:27;9.07;87.88
64961;SHT31;51487;52.266;10.542;2024-03-02T00:36:08;9.06;88.07
64961;SHT31;51487;52.266;10.542;2024-03-02T00:38:46;9.06;88.10
64961;SHT31;51487;52.266;10.542;2024-03-02T00:41:32;9.03;88.05
64961;SHT31;51487;52.266;10.542;2024-03-02T00:44:00;8.94;88.29
64961;SHT31;51487;52.266;10.542;2024-03-02T00:46:29;8.96;88.19
64961;SHT31;51487;52.266;10.542;2024-03-02T00:49:04;8.90;88.32
64961;SHT31;51487;52.266;10.542;2024-03-02T00:51:32;8.97;88.34
64961;SHT31;51487;52.266;10.542;2024-03-02T00:54:01;8.93;88.34
64961;SHT31;51487;52.266;10.542;2024-03-02T00:56:30;9.04;88.18
64961;SHT31;51487;52.266;10.542;2024-03-02T00:58:56;8.97;88.26
64961;SHT31;51487;52.266;10.542;2024-03-02T01:01:22;8.91;88.46
64961;SHT31;51487;52.266;10.542;2024-03-02T01:03:48;8.94;88.45
64961;SHT31;51487;52.266;10.542;2024-03-02T01:06:17;8.84;88.68
64961;SHT31;51487;52.266;10.542;2024-03-02T01:08:42;8.81;88.72
64961;SHT31;51487;52.266;10.542;2024-03-02T01:11:08;8.84;88.82
64961;SHT31;51487;52.266;10.542;2024-03-02T01:13:34;8.84;88.79
64961;SHT31;51487;52.266;10.542;2024-03-02T01:16:00;8.88;88.76
64961;SHT31;51487;52.266;10.542;2024-03-02T01:18:26;8.88;88.80
64961;SHT31;51487;52.266;10.542;2024-03-02T01:20:52;8.81;88.92
64961;SHT31;51487;52.266;10.542;2024-03-02T01:23:19;8.83;88.91
64961;SHT31;51487;52.266;10.542;2024-03-02T01:25:48;8.87;88.96
64961;SHT31;51487;52.266;10.542;2024-03-02T01:28:14;8.86;88.77
64961;SHT31;51487;52.266;10.542;2024-03-02T01:30:40;8.75;89.06
64961;SHT31;51487;52.266;10.542;2024-03-02T01:33:08;8.75;89.06
64961;SHT31;51487;52.266;10.542;2024-03-02T01:35:34;8.81;89.12
64961;SHT31;51487;52.266;10.542;2024-03-02T01:38:01;8.84;88.93
64961;SHT31;51487;52.266;10.542;2024-03-02T01:40:27;8.84;88.81
64961;SHT31;51487;52.266;10.542;2024-03-02T01:42:54;8.90;88.64
64961;SHT31;51487;52.266;10.542;2024-03-02T01:45:20;8.91;88.64
64961;SHT31;51487;52.266;10.542;2024-03-02T01:47:46;8.90;88.67
64961;SHT31;51487;52.266;10.542;2024-03-02T01:50:12;8.76;88.95
64961;SHT31;51487;52.266;10.542;2024-03-02T01:52:39;8.76;89.08
64961;SHT31;51487;52.266;10.542;2024-03-02T01:55:06;8.70;89.21
64961;SHT31;51487;52.266;10.542;2024-03-02T01:57:34;8.76;89.30
64961;SHT31;51487;52.266;10.542;2024-03-02T02:00:00;8.60;89.40
64961;SHT31;51487;52.266;10.542;2024-03-02T02:02:26;8.60;89.54
64961;SHT31;51487;52.266;10.542;2024-03-02T02:04:51;8.62;89.45
64961;SHT31;51487;52.266;10.542;2024-03-02T02:07:17;8.57;89.49
64961;SHT31;51487;52.266;10.542;2024-03-02T02:09:43;8.66;89.60
64961;SHT31;51487;52.266;10.542;2024-03-02T02:12:10;8.81;89.33
64961;SHT31;51487;52.266;10.542;2024-03-02T02:14:36;8.80;89.03
64961;SHT31;51487;52.266;10.542;2024-03-02T02:17:02;8.79;89.10
64961;SHT31;51487;52.266;10.542;2024-03-02T02:19:28;8.72;89.08
64961;SHT31;51487;52.266;10.542;2024-03-02T02:21:54;8.81;88.87
64961;SHT31;51487;52.266;10.542;2024-03-02T02:24:20;8.76;89.00
64961;SHT31;51487;52.266;10.542;2024-03-02T02:26:45;8.80;89.20
64961;SHT31;51487;52.266;10.542;2024-03-02T02:29:11;8.86;89.09
64961;SHT31;51487;52.266;10.542;2024-03-02T02:31:41;8.73;89.29
64961;SHT31;51487;52.266;10.542;2024-03-02T02:34:07;8.72;89.05
64961;SHT31;51487;52.266;10.542;2024-03-02T02:36:34;8.67;89.08
64961;SHT31;51487;52.266;10.542;2024-03-02T02:39:04;8.76;89.04
64961;SHT31;51487;52.266;10.542;2024-03-02T02:41:32;8.75;88.92
64961;SHT31;51487;52.266;10.542;2024-03-02T02:43:57;8.63;89.28
64961;SHT31;51487;52.266;10.542;2024-03-02T02:46:23;8.72;89.20
64961;SHT31;51487;52.266;10.542;2024-03-02T02:48:48;8.67;89.14
64961;SHT31;51487;52.266;10.542;2024-03-02T02:51:14;8.70;89.38
64961;SHT31;51487;52.266;10.542;2024-03-02T02:53:40;8.72;89.20
64961;SHT31;51487;52.266;10.542;2024-03-02T02:56:09;8.80;89.30
64961;SHT31;51487;52.266;10.542;2024-03-02T02:58:35;8.81;89.01
64961;SHT31;51487;52.266;10.542;2024-03-02T03:01:01;8.76;88.97
64961;SHT31;51487;52.266;10.542;2024-03-02T03:03:26;8.67;89.25
64961;SHT31;51487;52.266;10.542;2024-03-02T03:05:52;8.65;89.39
64961;SHT31;51487;52.266;10.542;2024-03-02T03:08:17;8.66;89.43
64961;SHT31;51487;52.266;10.542;2024-03-02T03:10:43;8.72;89.34
64961;SHT31;51487;52.266;10.542;2024-03-02T03:13:10;8.72;89.52
64961;SHT31;51487;52.266;10.542;2024-03-02T03:15:36;8.66;89.64
64961;SHT31;51487;52.266;10.542;2024-03-02T03:18:03;8.73;89.38
64961;SHT31;51487;52.266;10.542;2024-03-02T03:20:30;8.73;89.31
64961;SHT31;51487;52.266;10.542;2024-03-02T03:22:56;8.72;89.25
64961;SHT31;51487;52.266;10.542;2024-03-02T03:25:22;8.75;89.66
64961;SHT31;51487;52.266;10.542;2024-03-02T03:27:48;8.76;89.69
64961;SHT31;51487;52.266;10.542;2024-03-02T03:30:14;8.65;89.98
64961;SHT31;51487;52.266;10.542;2024-03-02T03:32:39;8.69;89.88
64961;SHT31;51487;52.266;10.542;2024-03-02T03:35:06;8.70;90.48
64961;SHT31;51487;52.266;10.542;2024-03-02T03:37:32;8.72;90.49
64961;SHT31;51487;52.266;10.542;2024-03-02T03:40:01;8.59;90.45
64961;SHT31;51487;52.266;10.542;2024-03-02T03:42:28;8.57;90.45
64961;SHT31;51487;52.266;10.542;2024-03-02T03:44:53;8.57;90.35
64961;SHT31;51487;52.266;10.542;2024-03-02T03:47:19;8.76;90.48
64961;SHT31;51487;52.266;10.542;2024-03-02T03:49:45;8.70;90.42
64961;SHT31;51487;52.266;10.542;2024-03-02T03:52:11;8.73;90.39
64961;SHT31;51487;52.266;10.542;2024-03-02T03:54:37;8.69;90.77
64961;SHT31;51487;52.266;10.542;2024-03-02T03:57:04;8.66;90.56
64961;SHT31;51487;52.266;10.542;2024-03-02T03:59:30;8.69;90.17
64961;SHT31;51487;52.266;10.542;2024-03-02T04:01:56;8.53;90.48
64961;SHT31;51487;52.266;10.542;2024-03-02T04:04:21;8.57;90.53
64961;SHT31;51487;52.266;10.542;2024-03-02T04:06:47;8.53;90.48
64961;SHT31;51487;52.266;10.542;2024-03-02T04:09:13;8.49;90.78
64961;SHT31;51487;52.266;10.542;2024-03-02T04:11:38;8.48;90.59
64961;SHT31;51487;52.266;10.542;2024-03-02T04:14:04;8.53;90.77
64961;SHT31;51487;52.266;10.542;2024-03-02T04:16:31;8.59;90.58
64961;SHT31;51487;52.266;10.542;2024-03-02T04:18:57;8.60;90.14
64961;SHT31;51487;52.266;10.542;2024-03-02T04:21:22;8.59;89.87
64961;SHT31;51487;52.266;10.542;2024-03-02T04:23:48;8.60;90.33
64961;SHT31;51487;52.266;10.542;2024-03-02T04:26:14;8.56;90.17
64961;SHT31;51487;52.266;10.542;2024-03-02T04:28:40;8.46;90.16
64961;SHT31;51487;52.266;10.542;2024-03-02T04:31:05;8.46;90.24
64961;SHT31;51487;52.266;10.542;2024-03-02T04:33:31;8.46;90.38
64961;SHT31;51487;52.266;10.542;2024-03-02T04:35:56;8.46;90.17
64961;SHT31;51487;52.266;10.542;2024-03-02T04:38:23;8.42;90.18
64961;SHT31;51487;52.266;10.542;2024-03-02T04:40:48;8.36;90.67
64961;SHT31;51487;52.266;10.542;2024-03-02T04:43:14;8.38;90.50
64961;SHT31;51487;52.266;10.542;2024-03-02T04:45:42;8.25;90.61
64961;SHT31;51487;52.266;10.542;2024-03-02T04:48:08;8.28;90.73
64961;SHT31;51487;52.266;10.542;2024-03-02T04:50:33;8.28;90.58
64961;SHT31;51487;52.266;10.542;2024-03-02T04:52:59;8.24;90.70
64961;SHT31;51487;52.266;10.542;2024-03-02T04:55:25;8.26;90.55
64961;SHT31;51487;52.266;10.542;2024-03-02T04:58:10;8.18;90.45
64961;SHT31;51487;52.266;10.542;2024-03-02T05:00:36;8.11;90.58
64961;SHT31;51487;52.266;10.542;2024-03-02T05:03:02;8.11;90.59
64961;SHT31;51487;52.266;10.542;2024-03-02T05:05:28;8.12;90.72
64961;SHT31;51487;52.266;10.542;2024-03-02T05:07:53;8.22;90.65
64961;SHT31;51487;52.266;10.542;2024-03-02T05:10:19;8.22;91.00
64961;SHT31;51487;52.266;10.542;2024-03-02T05:12:45;8.15;90.63
64961;SHT31;51487;52.266;10.542;2024-03-02T05:15:14;8.24;90.47
64961;SHT31;51487;52.266;10.542;2024-03-02T05:17:40;8.25;90.58
64961;SHT31;51487;52.266;10.542;2024-03-02T05:20:09;8.18;90.47
64961;SHT31;51487;52.266;10.542;2024-03-02T05:22:35;8.21;90.35
64961;SHT31;51487;52.266;10.542;2024-03-02T05:25:02;8.31;90.02
64961;SHT31;51487;52.266;10.542;2024-03-02T05:27:28;8.21;89.82
64961;SHT31;51487;52.266;10.542;2024-03-02T05:29:54;8.15;89.94
64961;SHT31;51487;52.266;10.542;2024-03-02T05:32:19;8.22;89.90
64961;SHT31;51487;52.266;10.542;2024-03-02T05:34:45;8.21;89.81
64961;SHT31;51487;52.266;10.542;2024-03-02T05:37:11;8.22;90.11
64961;SHT31;51487;52.266;10.542;2024-03-02T05:39:37;8.05;89.96
64961;SHT31;51487;52.266;10.542;2024-03-02T05:42:02;8.01;90.15
64961;SHT31;51487;52.266;10.542;2024-03-02T05:44:28;7.98;90.37
64961;SHT31;51487;52.266;10.542;2024-03-02T05:46:54;7.98;90.31
64961;SHT31;51487;52.266;10.542;2024-03-02T05:49:19;7.88;90.81
64961;SHT31;51487;52.266;10.542;2024-03-02T05:51:45;7.88;90.66
64961;SHT31;51487;52.266;10.542;2024-03-02T05:54:10;7.87;90.62
64961;SHT31;51487;52.266;10.542;2024-03-02T05:56:36;7.86;91.05
64961;SHT31;51487;52.266;10.542;2024-03-02T05:59:01;7.87;90.79
64961;SHT31;51487;52.266;10.542;2024-03-02T06:01:41;7.90;90.71
64961;SHT31;51487;52.266;10.542;2024-03-02T06:04:09;7.94;90.80
64961;SHT31;51487;52.266;10.542;2024-03-02T06:06:34;7.90;90.65
64961;SHT31;51487;52.266;10.542;2024-03-02T06:09:05;7.90;90.71
64961;SHT31;51487;52.266;10.542;2024-03-02T06:11:39;7.99;90.56
64961;SHT31;51487;52.266;10.542;2024-03-02T06:14:07;7.97;90.47
64961;SHT31;51487;52.266;10.542;2024-03-02T06:16:33;7.91;90.49
64961;SHT31;51487;52.266;10.542;2024-03-02T06:18:59;7.83;90.79
64961;SHT31;51487;52.266;10.542;2024-03-02T06:21:29;7.83;90.82
64961;SHT31;51487;52.266;10.542;2024-03-02T06:23:54;7.88;90.90
64961;SHT31;51487;52.266;10.542;2024-03-02T06:26:20;7.90;90.66
64961;SHT31;51487;52.266;10.542;2024-03-02T06:28:46;7.91;90.68
64961;SHT31;51487;52.266;10.542;2024-03-02T06:31:11;8.04;90.40
64961;SHT31;51487;52.266;10.542;2024-03-02T06:33:37;7.95;90.35
64961;SHT31;51487;52.266;10.542;2024-03-02T06:36:04;7.99;90.66
64961;SHT31;51487;52.266;10.542;2024-03-02T06:38:29;7.93;90.63
64961;SHT31;51487;52.266;10.542;2024-03-02T06:40:57;7.95;90.72
64961;SHT31;51487;52.266;10.542;2024-03-02T06:43:23;7.95;90.58
64961;SHT31;51487;52.266;10.542;2024-03-02T06:45:52;7.98;90.55
64961;SHT31;51487;52.266;10.542;2024-03-02T06:48:18;7.95;90.50
64961;SHT31;51487;52.266;10.542;2024-03-02T06:50:49;7.91;90.49
64961;SHT31;51487;52.266;10.542;2024-03-02T06:53:18;7.86;90.69
64961;SHT31;51487;52.266;10.542;2024-03-02T06:55:45;7.84;90.78
64961;SHT31;51487;52.266;10.542;2024-03-02T06:58:14;7.88;90.65
64961;SHT31;51487;52.266;10.542;2024-03-02T07:00:42;7.84;90.59
64961;SHT31;51487;52.266;10.542;2024-03-02T07:03:09;7.81;90.78
64961;SHT31;51487;52.266;10.542;2024-03-02T07:05:35;7.84;90.74
64961;SHT31;51487;52.266;10.542;2024-03-02T07:08:00;7.80;90.84
64961;SHT31;51487;52.266;10.542;2024-03-02T07:10:27;7.84;90.82
64961;SHT31;51487;52.266;10.542;2024-03-02T07:12:52;7.80;91.05
64961;SHT31;51487;52.266;10.542;2024-03-02T07:15:18;7.76;91.21
64961;SHT31;51487;52.266;10.542;2024-03-02T07:17:55;7.84;91.13
64961;SHT31;51487;52.266;10.542;2024-03-02T07:20:21;7.87;91.08
64961;SHT31;51487;52.266;10.542;2024-03-02T07:22:47;7.97;90.96
64961;SHT31;51487;52.266;10.542;2024-03-02T07:25:12;8.08;91.08
64961;SHT31;51487;52.266;10.542;2024-03-02T07:27:39;8.05;90.74
64961;SHT31;51487;52.266;10.542;2024-03-02T07:30:06;8.08;90.81
64961;SHT31;51487;52.266;10.542;2024-03-02T07:32:32;8.12;90.53
64961;SHT31;51487;52.266;10.542;2024-03-02T07:34:57;8.24;90.32
64961;SHT31;51487;52.266;10.542;2024-03-02T07:37:23;8.35;90.20
64961;SHT31;51487;52.266;10.542;2024-03-02T07:39:50;8.39;89.97
64961;SHT31;51487;52.266;10.542;2024-03-02T07:42:16;8.35;89.96
64961;SHT31;51487;52.266;10.542;2024-03-02T07:44:44;8.36;89.95
64961;SHT31;51487;52.266;10.542;2024-03-02T07:47:10;8.44;90.01
64961;SHT31;51487;52.266;10.542;2024-03-02T07:49:36;8.50;89.76
64961;SHT31;51487;52.266;10.542;2024-03-02T07:52:02;8.57;89.65
64961;SHT31;51487;52.266;10.542;2024-03-02T07:54:27;8.56;89.66
64961;SHT31;51487;52.266;10.542;2024-03-02T07:56:53;8.63;89.68
64961;SHT31;51487;52.266;10.542;2024-03-02T07:59:18;8.70;89.66
64961;SHT31;51487;52.266;10.542;2024-03-02T08:01:44;8.83;89.20
64961;SHT31;51487;52.266;10.542;2024-03-02T08:04:10;8.93;88.89
64961;SHT31;51487;52.266;10.542;2024-03-02T08:06:35;9.03;88.67
64961;SHT31;51487;52.266;10.542;2024-03-02T08:09:01;9.06;88.52
64961;SHT31;51487;52.266;10.542;2024-03-02T08:11:27;9.14;88.56
64961;SHT31;51487;52.266;10.542;2024-03-02T08:13:53;9.21;88.19
64961;SHT31;51487;52.266;10.542;2024-03-02T08:16:24;9.38;87.85
64961;SHT31;51487;52.266;10.542;2024-03-02T08:18:51;9.42;87.73
64961;SHT31;51487;52.266;10.542;2024-03-02T08:21:17;9.38;88.00
64961;SHT31;51487;52.266;10.542;2024-03-02T08:23:43;9.45;87.80
64961;SHT31;51487;52.266;10.542;2024-03-02T08:26:10;9.45;87.52
64961;SHT31;51487;52.266;10.542;2024-03-02T08:28:36;9.44;88.02
64961;SHT31;51487;52.266;10.542;2024-03-02T08:31:07;9.58;87.64
64961;SHT31;51487;52.266;10.542;2024-03-02T08:33:33;9.71;87.20
64961;SHT31;51487;52.266;10.542;2024-03-02T08:36:00;9.71;87.15
64961;SHT31;51487;52.266;10.542;2024-03-02T08:38:26;9.76;87.19
64961;SHT31;51487;52.266;10.542;2024-03-02T08:40:51;9.68;87.09
64961;SHT31;51487;52.266;10.542;2024-03-02T08:43:17;9.69;87.11
64961;SHT31;51487;52.266;10.542;2024-03-02T08:45:43;9.79;86.90
64961;SHT31;51487;52.266;10.542;2024-03-02T08:48:09;9.72;87.23
64961;SHT31;51487;52.266;10.542;2024-03-02T08:50:36;9.85;86.95
64961;SHT31;51487;52.266;10.542;2024-03-02T08:53:03;9.93;87.05
64961;SHT31;51487;52.266;10.542;2024-03-02T08:55:29;10.12;86.59
64961;SHT31;51487;52.266;10.542;2024-03-02T08:57:55;10.04;86.43
64961;SHT31;51487;52.266;10.542;2024-03-02T09:00:21;10.03;86.47
64961;SHT31;51487;52.266;10.542;2024-03-02T09:02:46;10.10;86.42
64961;SHT31;51487;52.266;10.542;2024-03-02T09:05:12;10.17;86.36
64961;SHT31;51487;52.266;10.542;2024-03-02T09:07:38;10.20;86.54
64961;SHT31;51487;52.266;10.542;2024-03-02T09:10:08;10.18;86.38
64961;SHT31;51487;52.266;10.542;2024-03-02T09:12:35;10.24;86.37
64961;SHT31;51487;52.266;10.542;2024-03-02T09:15:01;10.24;86.47
64961;SHT31;51487;52.266;10.542;2024-03-02T09:17:29;10.33;86.26
64961;SHT31;51487;52.266;10.542;2024-03-02T09:19:54;10.44;86.09
64961;SHT31;51487;52.266;10.542;2024-03-02T09:22:20;10.64;85.76
64961;SHT31;51487;52.266;10.542;2024-03-02T09:24:45;10.74;85.45
64961;SHT31;51487;52.266;10.542;2024-03-02T09:27:11;10.81;85.19
64961;SHT31;51487;52.266;10.542;2024-03-02T09:29:37;10.91;84.87
64961;SHT31;51487;52.266;10.542;2024-03-02T09:32:02;10.92;84.97
64961;SHT31;51487;52.266;10.542;2024-03-02T09:34:28;10.91;85.27
64961;SHT31;51487;52.266;10.542;2024-03-02T09:36:54;11.11;84.73
64961;SHT31;51487;52.266;10.542;2024-03-02T09:39:19;11.22;84.59
64961;SHT31;51487;52.266;10.542;2024-03-02T09:41:45;11.26;83.91
64961;SHT31;51487;52.266;10.542;2024-03-02T09:44:12;11.36;83.34
64961;SHT31;51487;52.266;10.542;2024-03-02T09:46:38;11.44;83.29
64961;SHT31;51487;52.266;10.542;2024-03-02T09:49:04;11.54;83.12
64961;SHT31;51487;52.266;10.542;2024-03-02T09:51:31;11.69;82.56
64961;SHT31;51487;52.266;10.542;2024-03-02T09:53:56;11.66;82.48
64961;SHT31;51487;52.266;10.542;2024-03-02T09:56:22;11.67;82.32
64961;SHT31;51487;52.266;10.542;2024-03-02T09:58:48;11.69;82.20
64961;SHT31;51487;52.266;10.542;2024-03-02T10:01:13;11.81;82.11
64961;SHT31;51487;52.266;10.542;2024-03-02T10:03:39;11.91;81.79
64961;SHT31;51487;52.266;10.542;2024-03-02T10:06:30;12.08;81.18
64961;SHT31;51487;52.266;10.542;2024-03-02T10:08:56;12.18;81.01
64961;SHT31;51487;52.266;10.542;2024-03-02T10:11:35;12.14;80.90
64961;SHT31;51487;52.266;10.542;2024-03-02T10:14:11;12.11;80.99
64961;SHT31;51487;52.266;10.542;2024-03-02T10:16:39;12.18;80.91
64961;SHT31;51487;52.266;10.542;2024-03-02T10:19:23;12.12;81.13
64961;SHT31;51487;52.266;10.542;2024-03-02T10:21:53;12.32;80.95
64961;SHT31;51487;52.266;10.542;2024-03-02T10:24:21;12.38;81.03
64961;SHT31;51487;52.266;10.542;2024-03-02T10:26:48;12.46;80.84
64961;SHT31;51487;52.266;10.542;2024-03-02T10:29:15;12.60;80.75
64961;SHT31;51487;52.266;10.542;2024-03-02T10:31:44;12.72;80.42
64961;SHT31;51487;52.266;10.542;2024-03-02T10:34:11;12.86;80.11
64961;SHT31;51487;52.266;10.542;2024-03-02T10:36:41;12.88;80.05
64961;SHT31;51487;52.266;10.542;2024-03-02T10:39:08;13.04;80.15
64961;SHT31;51487;52.266;10.542;2024-03-02T10:41:36;12.97;80.19
64961;SHT31;51487;52.266;10.542;2024-03-02T10:44:09;12.96;79.55
64961;SHT31;51487;52.266;10.542;2024-03-02T10:46:38;13.10;79.33
64961;SHT31;51487;52.266;10.542;2024-03-02T10:49:05;13.15;79.80
64961;SHT31;51487;52.266;10.542;2024-03-02T10:51:33;13.25;79.80
64961;SHT31;51487;52.266;10.542;2024-03-02T10:54:03;13.11;79.30
64961;SHT31;51487;52.266;10.542;2024-03-02T10:56:43;13.31;78.52
64961;SHT31;51487;52.266;10.542;2024-03-02T10:59:35;13.34;77.96
64961;SHT31;51487;52.266;10.542;2024-03-02T11:02:03;13.21;77.19
64961;SHT31;51487;52.266;10.542;2024-03-02T11:04:31;13.29;77.30
64961;SHT31;51487;52.266;10.542;2024-03-02T11:07:04;13.28;77.09
64961;SHT31;51487;52.266;10.542;2024-03-02T11:09:34;13.39;75.55
64961;SHT31;51487;52.266;10.542;2024-03-02T11:14:51;13.58;74.36
64961;SHT31;51487;52.266;10.542;2024-03-02T11:17:19;13.51;74.66
64961;SHT31;51487;52.266;10.542;2024-03-02T11:19:47;13.70;73.42
64961;SHT31;51487;52.266;10.542;2024-03-02T11:22:13;13.77;74.09
64961;SHT31;51487;52.266;10.542;2024-03-02T11:24:51;13.85;74.61
64961;SHT31;51487;52.266;10.542;2024-03-02T11:32:59;13.93;73.15
64961;SHT31;51487;52.266;10.542;2024-03-02T11:35:28;13.77;73.28
64961;SHT31;51487;52.266;10.542;2024-03-02T11:37:54;13.96;73.04
64961;SHT31;51487;52.266;10.542;2024-03-02T11:40:25;13.97;72.47
64961;SHT31;51487;52.266;10.542;2024-03-02T11:42:51;14.05;72.55
64961;SHT31;51487;52.266;10.542;2024-03-02T11:45:17;14.02;73.12
64961;SHT31;51487;52.266;10.542;2024-03-02T11:47:50;14.00;72.74
64961;SHT31;51487;52.266;10.542;2024-03-02T11:50:41;14.17;72.90
64961;SHT31;51487;52.266;10.542;2024-03-02T11:53:09;14.24;73.10
64961;SHT31;51487;52.266;10.542;2024-03-02T11:55:36;14.35;72.46
64961;SHT31;51487;52.266;10.542;2024-03-02T11:58:04;14.41;72.44
64961;SHT31;51487;52.266;10.542;2024-03-02T12:00:30;14.41;72.66
64961;SHT31;51487;52.266;10.542;2024-03-02T12:03:06;14.41;72.91
64961;SHT31;51487;52.266;10.542;2024-03-02T12:05:32;14.27;73.44
64961;SHT31;51487;52.266;10.542;2024-03-02T12:08:01;14.38;72.54
64961;SHT31;51487;52.266;10.542;2024-03-02T12:10:28;14.55;72.40
64961;SHT31;51487;52.266;10.542;2024-03-02T12:12:58;14.68;72.32
64961;SHT31;51487;52.266;10.542;2024-03-02T12:15:32;14.75;71.49
64961;SHT31;51487;52.266;10.542;2024-03-02T12:18:00;14.81;71.06
64961;SHT31;51487;52.266;10.542;2024-03-02T12:20:28;14.69;71.20
64961;SHT31;51487;52.266;10.542;2024-03-02T12:22:58;14.88;70.77
64961;SHT31;51487;52.266;10.542;2024-03-02T12:25:25;15.05;70.37
64961;SHT31;51487;52.266;10.542;2024-03-02T12:27:55;15.00;69.73
64961;SHT31;51487;52.266;10.542;2024-03-02T12:30:23;14.98;69.86
64961;SHT31;51487;52.266;10.542;2024-03-02T12:32:49;15.02;68.80
64961;SHT31;51487;52.266;10.542;2024-03-02T12:35:16;14.89;68.97
64961;SHT31;51487;52.266;10.542;2024-03-02T12:37:49;15.14;68.16
64961;SHT31;51487;52.266;10.542;2024-03-02T12:40:17;15.19;68.77
64961;SHT31;51487;52.266;10.542;2024-03-02T12:42:45;15.12;68.59
64961;SHT31;51487;52.266;10.542;2024-03-02T12:45:12;14.99;68.82
64961;SHT31;51487;52.266;10.542;2024-03-02T12:47:40;15.22;68.72
64961;SHT31;51487;52.266;10.542;2024-03-02T12:50:07;15.12;69.17
64961;SHT31;51487;52.266;10.542;2024-03-02T12:52:34;15.13;68.58
64961;SHT31;51487;52.266;10.542;2024-03-02T12:55:04;15.12;68.89
64961;SHT31;51487;52.266;10.542;2024-03-02T12:57:32;14.96;68.44
64961;SHT31;51487;52.266;10.542;2024-03-02T13:00:03;14.92;68.03
64961;SHT31;51487;52.266;10.542;2024-03-02T13:02:36;15.09;68.21
64961;SHT31;51487;52.266;10.542;2024-03-02T13:05:06;14.92;67.62
64961;SHT31;51487;52.266;10.542;2024-03-02T13:07:37;15.02;67.50
64961;SHT31;51487;52.266;10.542;2024-03-02T13:10:03;14.89;67.38
64961;SHT31;51487;52.266;10.542;2024-03-02T13:12:30;15.02;67.17
64961;SHT31;51487;52.266;10.542;2024-03-02T13:14:58;14.82;67.75
64961;SHT31;51487;52.266;10.542;2024-03-02T13:17:24;14.69;67.79
64961;SHT31;51487;52.266;10.542;2024-03-02T13:19:58;14.72;67.87
64961;SHT31;51487;52.266;10.542;2024-03-02T13:22:24;14.79;67.90
64961;SHT31;51487;52.266;10.542;2024-03-02T13:24:51;14.81;67.74
64961;SHT31;51487;52.266;10.542;2024-03-02T13:27:17;14.75;67.91
64961;SHT31;51487;52.266;10.542;2024-03-02T13:29:47;14.64;67.92
64961;SHT31;51487;52.266;10.542;2024-03-02T13:32:14;14.64;68.16
64961;SHT31;51487;52.266;10.542;2024-03-02T13:34:40;14.54;68.58
64961;SHT31;51487;52.266;10.542;2024-03-02T13:37:05;14.63;68.12
64961;SHT31;51487;52.266;10.542;2024-03-02T13:39:32;14.65;68.15
64961;SHT31;51487;52.266;10.542;2024-03-02T13:41:58;14.75;67.69
64961;SHT31;51487;52.266;10.542;2024-03-02T13:44:31;14.71;67.92
64961;SHT31;51487;52.266;10.542;2024-03-02T13:46:57;14.81;67.61
64961;SHT31;51487;52.266;10.542;2024-03-02T13:49:23;14.75;67.46
64961;SHT31;51487;52.266;10.542;2024-03-02T13:51:49;14.76;67.49
64961;SHT31;51487;52.266;10.542;2024-03-02T13:54:15;14.76;67.16
64961;SHT31;51487;52.266;10.542;2024-03-02T13:56:40;14.95;67.27
64961;SHT31;51487;52.266;10.542;2024-03-02T13:59:07;14.96;67.15
64961;SHT31;51487;52.266;10.542;2024-03-02T14:01:33;14.96;66.78
64961;SHT31;51487;52.266;10.542;2024-03-02T14:03:59;14.96;66.90
64961;SHT31;51487;52.266;10.542;2024-03-02T14:06:24;15.12;66.79
64961;SHT31;51487;52.266;10.542;2024-03-02T14:08:52;15.24;66.47
64961;SHT31;51487;52.266;10.542;2024-03-02T14:11:18;15.24;66.24
64961;SHT31;51487;52.266;10.542;2024-03-02T14:13:44;15.18;66.35
64961;SHT31;51487;52.266;10.542;2024-03-02T14:16:15;15.13;66.62
64961;SHT31;51487;52.266;10.542;2024-03-02T14:18:41;15.02;67.18
64961;SHT31;51487;52.266;10.542;2024-03-02T14:21:08;15.13;67.05
64961;SHT31;51487;52.266;10.542;2024-03-02T14:23:33;15.07;67.05
64961;SHT31;51487;52.266;10.542;2024-03-02T14:25:59;15.00;66.86
64961;SHT31;51487;52.266;10.542;2024-03-02T14:28:25;14.99;66.65
64961;SHT31;51487;52.266;10.542;2024-03-02T14:30:51;15.05;66.71
64961;SHT31;51487;52.266;10.542;2024-03-02T14:33:16;14.98;67.23
64961;SHT31;51487;52.266;10.542;2024-03-02T14:35:44;14.95;68.01
64961;SHT31;51487;52.266;10.542;2024-03-02T14:38:11;14.86;68.11
64961;SHT31;51487;52.266;10.542;2024-03-02T14:40:37;14.67;67.47
64961;SHT31;51487;52.266;10.542;2024-03-02T14:43:02;14.60;67.66
64961;SHT31;51487;52.266;10.542;2024-03-02T14:45:28;14.57;67.39
64961;SHT31;51487;52.266;10.542;2024-03-02T14:47:54;14.49;67.97
64961;SHT31;51487;52.266;10.542;2024-03-02T14:50:20;14.45;68.72
64961;SHT31;51487;52.266;10.542;2024-03-02T14:52:45;14.38;68.08
64961;SHT31;51487;52.266;10.542;2024-03-02T14:55:11;14.34;68.51
64961;SHT31;51487;52.266;10.542;2024-03-02T14:57:36;14.28;68.84
64961;SHT31;51487;52.266;10.542;2024-03-02T15:00:03;14.24;68.71
64961;SHT31;51487;52.266;10.542;2024-03-02T15:02:31;14.16;68.47
64961;SHT31;51487;52.266;10.542;2024-03-02T15:04:56;14.09;68.58
64961;SHT31;51487;52.266;10.542;2024-03-02T15:07:22;14.05;68.34
64961;SHT31;51487;52.266;10.542;2024-03-02T15:09:47;14.03;68.32
64961;SHT31;51487;52.266;10.542;2024-03-02T15:12:13;13.89;68.67
64961;SHT31;51487;52.266;10.542;2024-03-02T15:14:40;13.86;68.89
64961;SHT31;51487;52.266;10.542;2024-03-02T15:17:14;13.85;68.76
64961;SHT31;51487;52.266;10.542;2024-03-02T15:19:44;13.79;68.95
64961;SHT31;51487;52.266;10.542;2024-03-02T15:22:11;13.82;69.97
64961;SHT31;51487;52.266;10.542;2024-03-02T15:24:38;13.79;69.29
64961;SHT31;51487;52.266;10.542;2024-03-02T15:27:04;13.69;69.48
64961;SHT31;51487;52.266;10.542;2024-03-02T15:29:31;13.70;69.58
64961;SHT31;51487;52.266;10.542;2024-03-02T15:31:58;13.62;69.43
64961;SHT31;51487;52.266;10.542;2024-03-02T15:34:24;13.55;69.66
64961;SHT31;51487;52.266;10.542;2024-03-02T15:36:50;13.48;69.28
64961;SHT31;51487;52.266;10.542;2024-03-02T15:39:15;13.51;68.60